sensor_id;sensor_type;location;lat;lon;timestamp;P1;durP1;ratioP1;P2;durP2;ratioP2
25535;SDS011;13431;51.352;6.412;2022-08-21T00:00:50;15.43;;;9.95;;
25535;SDS011;13431;51.352;6.412;2022-08-21T00:03:18;13.05;;;9.25;;
25535;SDS011;13431;51.352;6.412;2022-08-21T00:05:47;11.70;;;10.02;;
25535;SDS011;13431;51.352;6.412;2022-08-21T00:08:17;13.27;;;9.60;;
25535;SDS011;13431;51.352;6.412;2022-08-21T00:10:46;11.55;;;8.82;;
25535;SDS011;13431;51.352;6.412;2022-08-21T00:13:14;10.13;;;9.10;;
25535;SDS011;13431;51.352;6.412;2022-08-21T00:15:45;10.50;;;9.50;;
25535;SDS011;13431;51.352;6.412;2022-08-21T00:18:13;11.00;;;9.02;;
25535;SDS011;13431;51.352;6.412;2022-08-21T00:20:41;13.60;;;9.38;;
25535;SDS011;13431;51.352;6.412;2022-08-21T00:23:10;9.65;;;8.70;;
25535;SDS011;13431;51.352;6.412;2022-08-21T00:25:37;12.25;;;9.15;;
25535;SDS011;13431;51.352;6.412;2022-08-21T00:28:05;9.45;;;8.43;;
25535;SDS011;13431;51.352;6.412;2022-08-21T00:30:33;15.98;;;10.23;;
25535;SDS011;13431;51.352;6.412;2022-08-21T00:33:01;10.73;;;9.32;;
25535;SDS011;13431;51.352;6.412;2022-08-21T00:35:30;9.85;;;8.82;;
25535;SDS011;13431;51.352;6.412;2022-08-21T00:38:01;10.20;;;9.20;;
25535;SDS011;13431;51.352;6.412;2022-08-21T00:40:32;12.00;;;9.70;;
25535;SDS011;13431;51.352;6.412;2022-08-21T00:43:03;11.43;;;9.83;;
25535;SDS011;13431;51.352;6.412;2022-08-21T00:45:32;14.80;;;10.07;;
25535;SDS011;13431;51.352;6.412;2022-08-21T00:48:00;11.05;;;9.95;;
25535;SDS011;13431;51.352;6.412;2022-08-21T00:50:28;12.52;;;9.63;;
25535;SDS011;13431;51.352;6.412;2022-08-21T00:53:00;11.93;;;10.73;;
25535;SDS011;13431;51.352;6.412;2022-08-21T00:55:29;13.30;;;11.40;;
25535;SDS011;13431;51.352;6.412;2022-08-21T00:57:58;19.55;;;10.45;;
25535;SDS011;13431;51.352;6.412;2022-08-21T01:00:29;10.48;;;9.38;;
25535;SDS011;13431;51.352;6.412;2022-08-21T01:02:59;13.40;;;10.70;;
25535;SDS011;13431;51.352;6.412;2022-08-21T01:05:33;13.23;;;11.20;;
25535;SDS011;13431;51.352;6.412;2022-08-21T01:08:00;12.98;;;11.65;;
25535;SDS011;13431;51.352;6.412;2022-08-21T01:10:28;15.23;;;11.02;;
25535;SDS011;13431;51.352;6.412;2022-08-21T01:12:56;13.15;;;11.07;;
25535;SDS011;13431;51.352;6.412;2022-08-21T01:15:26;11.80;;;10.63;;
25535;SDS011;13431;51.352;6.412;2022-08-21T01:17:57;12.55;;;11.13;;
25535;SDS011;13431;51.352;6.412;2022-08-21T01:20:25;12.25;;;11.13;;
25535;SDS011;13431;51.352;6.412;2022-08-21T01:22:59;13.18;;;10.77;;
25535;SDS011;13431;51.352;6.412;2022-08-21T01:25:28;11.80;;;10.57;;
25535;SDS011;13431;51.352;6.412;2022-08-21T01:27:57;12.40;;;11.05;;
25535;SDS011;13431;51.352;6.412;2022-08-21T01:30:29;11.70;;;10.55;;
25535;SDS011;13431;51.352;6.412;2022-08-21T01:32:57;14.57;;;11.02;;
25535;SDS011;13431;51.352;6.412;2022-08-21T01:35:25;10.70;;;9.63;;
25535;SDS011;13431;51.352;6.412;2022-08-21T01:37:53;11.77;;;10.68;;
25535;SDS011;13431;51.352;6.412;2022-08-21T01:40:20;11.88;;;10.77;;
25535;SDS011;13431;51.352;6.412;2022-08-21T01:42:48;12.70;;;10.80;;
25535;SDS011;13431;51.352;6.412;2022-08-21T01:45:15;14.95;;;11.18;;
25535;SDS011;13431;51.352;6.412;2022-08-21T01:47:43;13.80;;;10.05;;
25535;SDS011;13431;51.352;6.412;2022-08-21T01:50:12;10.70;;;9.52;;
25535;SDS011;13431;51.352;6.412;2022-08-21T01:52:44;10.98;;;9.55;;
25535;SDS011;13431;51.352;6.412;2022-08-21T01:55:13;13.85;;;10.13;;
25535;SDS011;13431;51.352;6.412;2022-08-21T01:57:42;11.57;;;10.40;;
25535;SDS011;13431;51.352;6.412;2022-08-21T02:00:11;12.10;;;10.30;;
25535;SDS011;13431;51.352;6.412;2022-08-21T02:02:41;10.50;;;9.40;;
25535;SDS011;13431;51.352;6.412;2022-08-21T02:05:09;11.45;;;9.98;;
25535;SDS011;13431;51.352;6.412;2022-08-21T02:07:43;10.73;;;9.45;;
25535;SDS011;13431;51.352;6.412;2022-08-21T02:10:15;12.80;;;10.40;;
25535;SDS011;13431;51.352;6.412;2022-08-21T02:12:44;11.32;;;10.20;;
25535;SDS011;13431;51.352;6.412;2022-08-21T02:15:12;11.40;;;10.02;;
25535;SDS011;13431;51.352;6.412;2022-08-21T02:17:44;11.73;;;9.65;;
25535;SDS011;13431;51.352;6.412;2022-08-21T02:20:21;14.93;;;10.02;;
25535;SDS011;13431;51.352;6.412;2022-08-21T02:23:03;11.77;;;10.50;;
25535;SDS011;13431;51.352;6.412;2022-08-21T02:25:31;12.00;;;10.85;;
25535;SDS011;13431;51.352;6.412;2022-08-21T02:27:59;12.30;;;10.27;;
25535;SDS011;13431;51.352;6.412;2022-08-21T02:30:33;12.23;;;10.38;;
25535;SDS011;13431;51.352;6.412;2022-08-21T02:33:04;14.23;;;11.00;;
25535;SDS011;13431;51.352;6.412;2022-08-21T02:35:33;11.70;;;10.50;;
25535;SDS011;13431;51.352;6.412;2022-08-21T02:38:02;12.50;;;11.15;;
25535;SDS011;13431;51.352;6.412;2022-08-21T02:40:33;11.68;;;10.35;;
25535;SDS011;13431;51.352;6.412;2022-08-21T02:43:03;12.70;;;11.38;;
25535;SDS011;13431;51.352;6.412;2022-08-21T02:45:32;11.73;;;10.63;;
25535;SDS011;13431;51.352;6.412;2022-08-21T02:48:01;14.43;;;11.20;;
25535;SDS011;13431;51.352;6.412;2022-08-21T02:50:36;12.55;;;11.43;;
25535;SDS011;13431;51.352;6.412;2022-08-21T02:53:06;11.20;;;10.20;;
25535;SDS011;13431;51.352;6.412;2022-08-21T02:55:35;14.18;;;11.07;;
25535;SDS011;13431;51.352;6.412;2022-08-21T02:58:05;14.80;;;11.70;;
25535;SDS011;13431;51.352;6.412;2022-08-21T03:00:34;11.52;;;9.82;;
25535;SDS011;13431;51.352;6.412;2022-08-21T03:03:04;14.57;;;11.23;;
25535;SDS011;13431;51.352;6.412;2022-08-21T03:05:32;11.32;;;10.20;;
25535;SDS011;13431;51.352;6.412;2022-08-21T03:08:03;12.13;;;10.52;;
25535;SDS011;13431;51.352;6.412;2022-08-21T03:10:37;13.80;;;11.15;;
25535;SDS011;13431;51.352;6.412;2022-08-21T03:13:07;12.95;;;11.52;;
25535;SDS011;13431;51.352;6.412;2022-08-21T03:15:34;13.00;;;11.05;;
25535;SDS011;13431;51.352;6.412;2022-08-21T03:18:04;11.35;;;10.23;;
25535;SDS011;13431;51.352;6.412;2022-08-21T03:20:32;11.75;;;10.57;;
25535;SDS011;13431;51.352;6.412;2022-08-21T03:23:01;13.13;;;10.73;;
25535;SDS011;13431;51.352;6.412;2022-08-21T03:25:40;12.85;;;11.60;;
25535;SDS011;13431;51.352;6.412;2022-08-21T03:28:09;10.82;;;9.73;;
25535;SDS011;13431;51.352;6.412;2022-08-21T03:30:40;11.95;;;10.85;;
25535;SDS011;13431;51.352;6.412;2022-08-21T03:33:09;11.70;;;10.60;;
25535;SDS011;13431;51.352;6.412;2022-08-21T03:35:41;12.23;;;11.05;;
25535;SDS011;13431;51.352;6.412;2022-08-21T03:38:11;12.07;;;10.65;;
25535;SDS011;13431;51.352;6.412;2022-08-21T03:40:42;14.18;;;11.10;;
25535;SDS011;13431;51.352;6.412;2022-08-21T03:43:10;11.48;;;10.32;;
25535;SDS011;13431;51.352;6.412;2022-08-21T03:45:38;12.98;;;11.60;;
25535;SDS011;13431;51.352;6.412;2022-08-21T03:48:06;12.02;;;10.82;;
25535;SDS011;13431;51.352;6.412;2022-08-21T03:50:35;12.13;;;10.65;;
25535;SDS011;13431;51.352;6.412;2022-08-21T03:53:10;12.95;;;11.65;;
25535;SDS011;13431;51.352;6.412;2022-08-21T03:55:44;12.82;;;11.40;;
25535;SDS011;13431;51.352;6.412;2022-08-21T03:58:17;13.93;;;12.38;;
25535;SDS011;13431;51.352;6.412;2022-08-21T04:00:47;15.50;;;11.68;;
25535;SDS011;13431;51.352;6.412;2022-08-21T04:03:16;14.35;;;12.40;;
25535;SDS011;13431;51.352;6.412;2022-08-21T04:05:44;15.02;;;12.27;;
25535;SDS011;13431;51.352;6.412;2022-08-21T04:08:13;14.00;;;12.15;;
25535;SDS011;13431;51.352;6.412;2022-08-21T04:10:44;14.77;;;12.20;;
25535;SDS011;13431;51.352;6.412;2022-08-21T04:13:14;14.65;;;13.15;;
25535;SDS011;13431;51.352;6.412;2022-08-21T04:15:41;15.82;;;13.23;;
25535;SDS011;13431;51.352;6.412;2022-08-21T04:18:09;16.67;;;14.13;;
25535;SDS011;13431;51.352;6.412;2022-08-21T04:20:37;15.48;;;13.88;;
25535;SDS011;13431;51.352;6.412;2022-08-21T04:23:05;14.85;;;13.45;;
25535;SDS011;13431;51.352;6.412;2022-08-21T04:25:33;13.88;;;12.50;;
25535;SDS011;13431;51.352;6.412;2022-08-21T04:28:01;15.10;;;13.55;;
25535;SDS011;13431;51.352;6.412;2022-08-21T04:30:29;13.90;;;12.60;;
25535;SDS011;13431;51.352;6.412;2022-08-21T04:32:56;16.48;;;12.85;;
25535;SDS011;13431;51.352;6.412;2022-08-21T04:35:25;14.20;;;12.70;;
25535;SDS011;13431;51.352;6.412;2022-08-21T04:37:54;15.05;;;13.43;;
25535;SDS011;13431;51.352;6.412;2022-08-21T04:40:22;14.82;;;12.30;;
25535;SDS011;13431;51.352;6.412;2022-08-21T04:42:53;13.13;;;11.65;;
25535;SDS011;13431;51.352;6.412;2022-08-21T04:45:30;15.65;;;13.23;;
25535;SDS011;13431;51.352;6.412;2022-08-21T04:47:59;15.15;;;11.82;;
25535;SDS011;13431;51.352;6.412;2022-08-21T04:50:34;14.45;;;11.70;;
25535;SDS011;13431;51.352;6.412;2022-08-21T04:53:05;13.25;;;11.88;;
25535;SDS011;13431;51.352;6.412;2022-08-21T04:55:37;13.25;;;11.88;;
25535;SDS011;13431;51.352;6.412;2022-08-21T04:58:06;12.10;;;10.90;;
25535;SDS011;13431;51.352;6.412;2022-08-21T05:00:35;16.55;;;11.00;;
25535;SDS011;13431;51.352;6.412;2022-08-21T05:03:03;11.98;;;10.68;;
25535;SDS011;13431;51.352;6.412;2022-08-21T05:05:33;15.13;;;11.43;;
25535;SDS011;13431;51.352;6.412;2022-08-21T05:08:01;12.68;;;11.07;;
25535;SDS011;13431;51.352;6.412;2022-08-21T05:10:30;16.08;;;11.32;;
25535;SDS011;13431;51.352;6.412;2022-08-21T05:12:58;13.77;;;11.52;;
25535;SDS011;13431;51.352;6.412;2022-08-21T05:15:27;11.70;;;10.50;;
25535;SDS011;13431;51.352;6.412;2022-08-21T05:17:54;15.27;;;11.90;;
25535;SDS011;13431;51.352;6.412;2022-08-21T05:20:27;12.80;;;10.90;;
25535;SDS011;13431;51.352;6.412;2022-08-21T05:22:55;13.32;;;11.02;;
25535;SDS011;13431;51.352;6.412;2022-08-21T05:25:23;15.10;;;10.55;;
25535;SDS011;13431;51.352;6.412;2022-08-21T05:27:54;12.02;;;9.77;;
25535;SDS011;13431;51.352;6.412;2022-08-21T05:30:23;20.23;;;10.43;;
25535;SDS011;13431;51.352;6.412;2022-08-21T05:32:55;14.93;;;10.07;;
25535;SDS011;13431;51.352;6.412;2022-08-21T05:35:24;11.50;;;10.18;;
25535;SDS011;13431;51.352;6.412;2022-08-21T05:37:53;11.40;;;9.55;;
25535;SDS011;13431;51.352;6.412;2022-08-21T05:40:20;18.20;;;10.38;;
25535;SDS011;13431;51.352;6.412;2022-08-21T05:42:49;13.10;;;8.80;;
25535;SDS011;13431;51.352;6.412;2022-08-21T05:45:21;13.75;;;8.60;;
25535;SDS011;13431;51.352;6.412;2022-08-21T05:48:13;10.07;;;7.68;;
25535;SDS011;13431;51.352;6.412;2022-08-21T05:50:45;8.85;;;7.95;;
25535;SDS011;13431;51.352;6.412;2022-08-21T05:53:14;9.73;;;7.95;;
25535;SDS011;13431;51.352;6.412;2022-08-21T05:55:43;11.02;;;8.02;;
25535;SDS011;13431;51.352;6.412;2022-08-21T05:58:13;10.52;;;8.13;;
25535;SDS011;13431;51.352;6.412;2022-08-21T06:00:43;12.40;;;7.43;;
25535;SDS011;13431;51.352;6.412;2022-08-21T06:03:17;8.68;;;5.95;;
25535;SDS011;13431;51.352;6.412;2022-08-21T06:05:46;6.80;;;4.77;;
25535;SDS011;13431;51.352;6.412;2022-08-21T06:08:14;8.02;;;4.50;;
25535;SDS011;13431;51.352;6.412;2022-08-21T06:10:43;6.55;;;4.30;;
25535;SDS011;13431;51.352;6.412;2022-08-21T06:13:11;7.15;;;4.75;;
25535;SDS011;13431;51.352;6.412;2022-08-21T06:15:39;7.75;;;4.35;;
25535;SDS011;13431;51.352;6.412;2022-08-21T06:18:07;6.55;;;4.47;;
25535;SDS011;13431;51.352;6.412;2022-08-21T06:20:35;6.95;;;4.25;;
25535;SDS011;13431;51.352;6.412;2022-08-21T06:23:02;9.55;;;4.32;;
25535;SDS011;13431;51.352;6.412;2022-08-21T06:25:30;7.20;;;3.88;;
25535;SDS011;13431;51.352;6.412;2022-08-21T06:28:05;8.52;;;4.65;;
25535;SDS011;13431;51.352;6.412;2022-08-21T06:30:35;5.65;;;3.97;;
25535;SDS011;13431;51.352;6.412;2022-08-21T06:33:04;6.00;;;3.78;;
25535;SDS011;13431;51.352;6.412;2022-08-21T06:35:33;7.07;;;3.80;;
25535;SDS011;13431;51.352;6.412;2022-08-21T06:38:01;7.63;;;4.10;;
25535;SDS011;13431;51.352;6.412;2022-08-21T06:40:29;8.23;;;3.97;;
25535;SDS011;13431;51.352;6.412;2022-08-21T06:43:08;6.25;;;3.70;;
25535;SDS011;13431;51.352;6.412;2022-08-21T06:45:41;7.63;;;4.00;;
25535;SDS011;13431;51.352;6.412;2022-08-21T06:48:08;6.97;;;3.45;;
25535;SDS011;13431;51.352;6.412;2022-08-21T06:50:36;7.82;;;4.32;;
25535;SDS011;13431;51.352;6.412;2022-08-21T06:53:08;7.65;;;3.88;;
25535;SDS011;13431;51.352;6.412;2022-08-21T06:55:38;6.72;;;3.83;;
25535;SDS011;13431;51.352;6.412;2022-08-21T06:58:06;6.60;;;3.58;;
25535;SDS011;13431;51.352;6.412;2022-08-21T07:00:34;5.63;;;3.30;;
25535;SDS011;13431;51.352;6.412;2022-08-21T07:03:05;6.65;;;3.75;;
25535;SDS011;13431;51.352;6.412;2022-08-21T07:05:32;10.50;;;3.60;;
25535;SDS011;13431;51.352;6.412;2022-08-21T07:08:00;6.65;;;3.35;;
25535;SDS011;13431;51.352;6.412;2022-08-21T07:10:27;4.57;;;3.03;;
25535;SDS011;13431;51.352;6.412;2022-08-21T07:12:55;6.32;;;3.17;;
25535;SDS011;13431;51.352;6.412;2022-08-21T07:15:27;4.40;;;2.70;;
25535;SDS011;13431;51.352;6.412;2022-08-21T07:17:57;5.10;;;2.58;;
25535;SDS011;13431;51.352;6.412;2022-08-21T07:20:26;6.15;;;2.83;;
25535;SDS011;13431;51.352;6.412;2022-08-21T07:22:56;7.10;;;2.78;;
25535;SDS011;13431;51.352;6.412;2022-08-21T07:25:26;4.85;;;2.70;;
25535;SDS011;13431;51.352;6.412;2022-08-21T07:27:54;4.30;;;2.85;;
25535;SDS011;13431;51.352;6.412;2022-08-21T07:30:21;6.60;;;2.78;;
25535;SDS011;13431;51.352;6.412;2022-08-21T07:32:49;5.90;;;2.78;;
25535;SDS011;13431;51.352;6.412;2022-08-21T07:35:17;6.10;;;2.70;;
25535;SDS011;13431;51.352;6.412;2022-08-21T07:37:46;15.30;;;4.70;;
25535;SDS011;13431;51.352;6.412;2022-08-21T07:40:14;5.70;;;2.40;;
25535;SDS011;13431;51.352;6.412;2022-08-21T07:42:42;5.32;;;2.05;;
25535;SDS011;13431;51.352;6.412;2022-08-21T07:45:12;6.05;;;2.92;;
25535;SDS011;13431;51.352;6.412;2022-08-21T07:47:39;7.82;;;2.75;;
25535;SDS011;13431;51.352;6.412;2022-08-21T07:50:09;4.78;;;2.10;;
25535;SDS011;13431;51.352;6.412;2022-08-21T07:52:39;6.10;;;2.47;;
25535;SDS011;13431;51.352;6.412;2022-08-21T07:55:08;8.00;;;2.45;;
25535;SDS011;13431;51.352;6.412;2022-08-21T07:57:38;6.55;;;2.35;;
25535;SDS011;13431;51.352;6.412;2022-08-21T08:00:07;5.53;;;2.45;;
25535;SDS011;13431;51.352;6.412;2022-08-21T08:02:40;3.88;;;2.10;;
25535;SDS011;13431;51.352;6.412;2022-08-21T08:05:08;4.47;;;1.98;;
25535;SDS011;13431;51.352;6.412;2022-08-21T08:07:38;3.92;;;2.00;;
25535;SDS011;13431;51.352;6.412;2022-08-21T08:10:06;5.70;;;2.58;;
25535;SDS011;13431;51.352;6.412;2022-08-21T08:12:35;5.93;;;2.85;;
25535;SDS011;13431;51.352;6.412;2022-08-21T08:15:04;3.83;;;2.38;;
25535;SDS011;13431;51.352;6.412;2022-08-21T08:17:33;5.45;;;2.20;;
25535;SDS011;13431;51.352;6.412;2022-08-21T08:20:01;5.50;;;2.33;;
25535;SDS011;13431;51.352;6.412;2022-08-21T08:22:29;4.07;;;2.35;;
25535;SDS011;13431;51.352;6.412;2022-08-21T08:24:56;5.55;;;3.10;;
25535;SDS011;13431;51.352;6.412;2022-08-21T08:27:24;4.95;;;2.42;;
25535;SDS011;13431;51.352;6.412;2022-08-21T08:29:52;3.03;;;2.10;;
25535;SDS011;13431;51.352;6.412;2022-08-21T08:32:19;6.95;;;2.92;;
25535;SDS011;13431;51.352;6.412;2022-08-21T08:34:47;6.00;;;3.05;;
25535;SDS011;13431;51.352;6.412;2022-08-21T08:37:15;6.32;;;2.42;;
25535;SDS011;13431;51.352;6.412;2022-08-21T08:39:43;3.42;;;1.95;;
25535;SDS011;13431;51.352;6.412;2022-08-21T08:42:14;6.05;;;2.67;;
25535;SDS011;13431;51.352;6.412;2022-08-21T08:45:10;4.22;;;2.30;;
25535;SDS011;13431;51.352;6.412;2022-08-21T08:47:47;6.35;;;2.45;;
25535;SDS011;13431;51.352;6.412;2022-08-21T08:50:24;5.45;;;2.40;;
25535;SDS011;13431;51.352;6.412;2022-08-21T08:53:01;4.30;;;2.20;;
25535;SDS011;13431;51.352;6.412;2022-08-21T08:55:35;3.90;;;2.30;;
25535;SDS011;13431;51.352;6.412;2022-08-21T08:58:11;4.75;;;2.38;;
25535;SDS011;13431;51.352;6.412;2022-08-21T09:00:53;5.72;;;2.78;;
25535;SDS011;13431;51.352;6.412;2022-08-21T09:03:22;5.30;;;2.80;;
25535;SDS011;13431;51.352;6.412;2022-08-21T09:05:55;6.95;;;2.70;;
25535;SDS011;13431;51.352;6.412;2022-08-21T09:08:50;3.95;;;2.17;;
25535;SDS011;13431;51.352;6.412;2022-08-21T09:14:33;2.78;;;2.10;;
25535;SDS011;13431;51.352;6.412;2022-08-21T09:17:31;4.53;;;2.58;;
25535;SDS011;13431;51.352;6.412;2022-08-21T09:20:17;4.97;;;2.50;;
25535;SDS011;13431;51.352;6.412;2022-08-21T09:22:59;2.83;;;1.85;;
25535;SDS011;13431;51.352;6.412;2022-08-21T09:25:39;3.97;;;2.15;;
25535;SDS011;13431;51.352;6.412;2022-08-21T09:28:12;3.97;;;2.33;;
25535;SDS011;13431;51.352;6.412;2022-08-21T09:30:41;2.75;;;2.13;;
25535;SDS011;13431;51.352;6.412;2022-08-21T09:33:09;3.42;;;2.10;;
25535;SDS011;13431;51.352;6.412;2022-08-21T09:35:53;4.80;;;1.95;;
25535;SDS011;13431;51.352;6.412;2022-08-21T09:38:29;4.90;;;1.85;;
25535;SDS011;13431;51.352;6.412;2022-08-21T09:41:06;3.75;;;1.50;;
25535;SDS011;13431;51.352;6.412;2022-08-21T09:43:36;2.75;;;1.73;;
25535;SDS011;13431;51.352;6.412;2022-08-21T09:48:41;2.88;;;1.63;;
25535;SDS011;13431;51.352;6.412;2022-08-21T09:51:12;2.47;;;1.50;;
25535;SDS011;13431;51.352;6.412;2022-08-21T09:53:45;4.32;;;1.58;;
25535;SDS011;13431;51.352;6.412;2022-08-21T09:56:20;3.33;;;1.80;;
25535;SDS011;13431;51.352;6.412;2022-08-21T09:59:19;3.85;;;1.75;;
25535;SDS011;13431;51.352;6.412;2022-08-21T10:01:48;2.60;;;1.45;;
25535;SDS011;13431;51.352;6.412;2022-08-21T10:04:35;1.88;;;1.52;;
25535;SDS011;13431;51.352;6.412;2022-08-21T10:07:10;3.72;;;1.70;;
25535;SDS011;13431;51.352;6.412;2022-08-21T10:09:40;3.60;;;1.48;;
25535;SDS011;13431;51.352;6.412;2022-08-21T10:12:20;3.45;;;1.65;;
25535;SDS011;13431;51.352;6.412;2022-08-21T10:20:17;3.55;;;1.90;;
25535;SDS011;13431;51.352;6.412;2022-08-21T10:23:06;3.63;;;1.70;;
25535;SDS011;13431;51.352;6.412;2022-08-21T10:25:57;4.50;;;1.48;;
25535;SDS011;13431;51.352;6.412;2022-08-21T10:34:17;5.78;;;1.55;;
25535;SDS011;13431;51.352;6.412;2022-08-21T10:37:05;3.35;;;1.45;;
25535;SDS011;13431;51.352;6.412;2022-08-21T10:47:55;2.92;;;1.80;;
25535;SDS011;13431;51.352;6.412;2022-08-21T10:50:30;4.30;;;1.52;;
25535;SDS011;13431;51.352;6.412;2022-08-21T10:58:46;4.53;;;1.58;;
25535;SDS011;13431;51.352;6.412;2022-08-21T11:01:18;5.38;;;2.22;;
25535;SDS011;13431;51.352;6.412;2022-08-21T11:04:09;4.20;;;1.80;;
25535;SDS011;13431;51.352;6.412;2022-08-21T11:06:45;2.80;;;1.65;;
25535;SDS011;13431;51.352;6.412;2022-08-21T11:09:20;2.23;;;1.60;;
25535;SDS011;13431;51.352;6.412;2022-08-21T11:11:56;4.93;;;2.22;;
25535;SDS011;13431;51.352;6.412;2022-08-21T11:17:16;4.65;;;1.90;;
25535;SDS011;13431;51.352;6.412;2022-08-21T11:19:50;3.42;;;1.55;;
25535;SDS011;13431;51.352;6.412;2022-08-21T11:27:50;3.83;;;1.58;;
25535;SDS011;13431;51.352;6.412;2022-08-21T11:30:19;3.28;;;1.48;;
25535;SDS011;13431;51.352;6.412;2022-08-21T11:35:47;4.93;;;2.00;;
25535;SDS011;13431;51.352;6.412;2022-08-21T11:38:27;3.97;;;1.50;;
25535;SDS011;13431;51.352;6.412;2022-08-21T11:41:05;4.82;;;1.70;;
25535;SDS011;13431;51.352;6.412;2022-08-21T11:44:15;6.32;;;1.98;;
25535;SDS011;13431;51.352;6.412;2022-08-21T11:46:59;3.30;;;1.42;;
25535;SDS011;13431;51.352;6.412;2022-08-21T11:49:46;3.42;;;1.67;;
25535;SDS011;13431;51.352;6.412;2022-08-21T11:52:29;3.53;;;1.60;;
25535;SDS011;13431;51.352;6.412;2022-08-21T11:55:12;3.97;;;1.80;;
25535;SDS011;13431;51.352;6.412;2022-08-21T11:58:04;5.47;;;1.90;;
25535;SDS011;13431;51.352;6.412;2022-08-21T12:00:41;2.90;;;1.83;;
25535;SDS011;13431;51.352;6.412;2022-08-21T12:06:04;4.28;;;1.65;;
25535;SDS011;13431;51.352;6.412;2022-08-21T12:08:57;4.93;;;1.83;;
25535;SDS011;13431;51.352;6.412;2022-08-21T12:11:26;4.45;;;1.48;;
25535;SDS011;13431;51.352;6.412;2022-08-21T12:13:58;2.28;;;1.23;;
25535;SDS011;13431;51.352;6.412;2022-08-21T12:21:34;6.05;;;1.65;;
25535;SDS011;13431;51.352;6.412;2022-08-21T12:26:59;4.72;;;1.83;;
25535;SDS011;13431;51.352;6.412;2022-08-21T12:29:49;6.10;;;1.50;;
25535;SDS011;13431;51.352;6.412;2022-08-21T12:32:27;3.92;;;1.80;;
25535;SDS011;13431;51.352;6.412;2022-08-21T12:35:08;2.17;;;1.42;;
25535;SDS011;13431;51.352;6.412;2022-08-21T12:40:24;2.78;;;1.33;;
25535;SDS011;13431;51.352;6.412;2022-08-21T12:42:56;2.17;;;1.00;;
25535;SDS011;13431;51.352;6.412;2022-08-21T12:45:29;2.92;;;1.48;;
25535;SDS011;13431;51.352;6.412;2022-08-21T12:48:06;3.78;;;1.67;;
25535;SDS011;13431;51.352;6.412;2022-08-21T12:50:48;4.32;;;1.67;;
25535;SDS011;13431;51.352;6.412;2022-08-21T12:53:31;3.35;;;1.42;;
25535;SDS011;13431;51.352;6.412;2022-08-21T12:56:09;4.03;;;1.55;;
25535;SDS011;13431;51.352;6.412;2022-08-21T12:58:44;3.15;;;1.65;;
25535;SDS011;13431;51.352;6.412;2022-08-21T13:01:19;2.22;;;1.25;;
25535;SDS011;13431;51.352;6.412;2022-08-21T13:03:53;5.93;;;1.70;;
25535;SDS011;13431;51.352;6.412;2022-08-21T13:06:32;3.70;;;1.42;;
25535;SDS011;13431;51.352;6.412;2022-08-21T13:09:05;3.88;;;1.20;;
25535;SDS011;13431;51.352;6.412;2022-08-21T13:11:35;4.40;;;1.88;;
25535;SDS011;13431;51.352;6.412;2022-08-21T13:14:06;3.25;;;1.50;;
25535;SDS011;13431;51.352;6.412;2022-08-21T13:16:57;4.50;;;1.60;;
25535;SDS011;13431;51.352;6.412;2022-08-21T13:19:26;3.10;;;1.35;;
25535;SDS011;13431;51.352;6.412;2022-08-21T13:21:54;2.85;;;1.70;;
25535;SDS011;13431;51.352;6.412;2022-08-21T13:27:16;5.00;;;1.95;;
25535;SDS011;13431;51.352;6.412;2022-08-21T13:32:54;4.05;;;1.40;;
25535;SDS011;13431;51.352;6.412;2022-08-21T13:35:26;2.83;;;1.35;;
25535;SDS011;13431;51.352;6.412;2022-08-21T13:38:02;2.10;;;1.50;;
25535;SDS011;13431;51.352;6.412;2022-08-21T13:40:32;2.38;;;1.35;;
25535;SDS011;13431;51.352;6.412;2022-08-21T13:43:17;5.20;;;1.55;;
25535;SDS011;13431;51.352;6.412;2022-08-21T13:45:48;2.85;;;1.58;;
25535;SDS011;13431;51.352;6.412;2022-08-21T13:48:18;2.53;;;1.23;;
25535;SDS011;13431;51.352;6.412;2022-08-21T13:50:47;4.72;;;2.17;;
25535;SDS011;13431;51.352;6.412;2022-08-21T13:53:23;5.40;;;1.90;;
25535;SDS011;13431;51.352;6.412;2022-08-21T13:55:59;2.70;;;1.65;;
25535;SDS011;13431;51.352;6.412;2022-08-21T13:58:29;3.78;;;1.65;;
25535;SDS011;13431;51.352;6.412;2022-08-21T14:04:14;5.63;;;1.70;;
25535;SDS011;13431;51.352;6.412;2022-08-21T14:07:14;4.05;;;1.58;;
25535;SDS011;13431;51.352;6.412;2022-08-21T14:09:45;5.45;;;1.30;;
25535;SDS011;13431;51.352;6.412;2022-08-21T14:12:34;2.88;;;1.63;;
25535;SDS011;13431;51.352;6.412;2022-08-21T14:15:30;2.83;;;1.50;;
25535;SDS011;13431;51.352;6.412;2022-08-21T14:18:16;2.85;;;1.40;;
25535;SDS011;13431;51.352;6.412;2022-08-21T14:20:45;3.28;;;1.48;;
25535;SDS011;13431;51.352;6.412;2022-08-21T14:23:23;5.68;;;4.50;;
25535;SDS011;13431;51.352;6.412;2022-08-21T14:25:54;3.65;;;1.83;;
25535;SDS011;13431;51.352;6.412;2022-08-21T14:28:30;5.88;;;2.00;;
25535;SDS011;13431;51.352;6.412;2022-08-21T14:31:19;2.30;;;1.40;;
25535;SDS011;13431;51.352;6.412;2022-08-21T14:33:48;5.13;;;2.05;;
25535;SDS011;13431;51.352;6.412;2022-08-21T14:36:15;3.72;;;1.83;;
25535;SDS011;13431;51.352;6.412;2022-08-21T14:38:43;2.58;;;2.00;;
25535;SDS011;13431;51.352;6.412;2022-08-21T14:41:15;2.88;;;1.85;;
25535;SDS011;13431;51.352;6.412;2022-08-21T14:43:45;4.97;;;3.75;;
25535;SDS011;13431;51.352;6.412;2022-08-21T14:46:27;2.80;;;1.40;;
25535;SDS011;13431;51.352;6.412;2022-08-21T14:48:55;3.03;;;1.50;;
25535;SDS011;13431;51.352;6.412;2022-08-21T14:51:23;4.13;;;2.70;;
25535;SDS011;13431;51.352;6.412;2022-08-21T14:53:50;3.80;;;1.90;;
25535;SDS011;13431;51.352;6.412;2022-08-21T14:56:18;3.55;;;1.83;;
25535;SDS011;13431;51.352;6.412;2022-08-21T14:58:46;3.78;;;1.70;;
25535;SDS011;13431;51.352;6.412;2022-08-21T15:01:16;4.28;;;2.67;;
25535;SDS011;13431;51.352;6.412;2022-08-21T15:03:45;4.00;;;3.50;;
25535;SDS011;13431;51.352;6.412;2022-08-21T15:06:15;4.95;;;2.83;;
25535;SDS011;13431;51.352;6.412;2022-08-21T15:08:44;4.05;;;3.53;;
25535;SDS011;13431;51.352;6.412;2022-08-21T15:11:12;4.63;;;3.15;;
25535;SDS011;13431;51.352;6.412;2022-08-21T15:14:03;3.20;;;2.30;;
25535;SDS011;13431;51.352;6.412;2022-08-21T15:16:34;3.20;;;1.80;;
25535;SDS011;13431;51.352;6.412;2022-08-21T15:19:02;3.53;;;1.70;;
25535;SDS011;13431;51.352;6.412;2022-08-21T15:21:30;3.85;;;1.70;;
25535;SDS011;13431;51.352;6.412;2022-08-21T15:23:57;2.65;;;1.30;;
25535;SDS011;13431;51.352;6.412;2022-08-21T15:26:25;3.85;;;2.03;;
25535;SDS011;13431;51.352;6.412;2022-08-21T15:28:52;4.43;;;1.73;;
25535;SDS011;13431;51.352;6.412;2022-08-21T15:31:19;3.95;;;1.60;;
25535;SDS011;13431;51.352;6.412;2022-08-21T15:33:47;3.50;;;1.50;;
25535;SDS011;13431;51.352;6.412;2022-08-21T15:36:14;3.50;;;1.58;;
25535;SDS011;13431;51.352;6.412;2022-08-21T15:38:41;5.53;;;1.90;;
25535;SDS011;13431;51.352;6.412;2022-08-21T15:41:10;3.88;;;1.42;;
25535;SDS011;13431;51.352;6.412;2022-08-21T15:43:42;4.13;;;1.40;;
25535;SDS011;13431;51.352;6.412;2022-08-21T15:46:13;4.70;;;1.50;;
25535;SDS011;13431;51.352;6.412;2022-08-21T15:48:42;4.03;;;1.30;;
25535;SDS011;13431;51.352;6.412;2022-08-21T15:51:10;4.03;;;1.48;;
25535;SDS011;13431;51.352;6.412;2022-08-21T15:53:39;5.97;;;1.70;;
25535;SDS011;13431;51.352;6.412;2022-08-21T15:56:10;5.30;;;2.20;;
25535;SDS011;13431;51.352;6.412;2022-08-21T15:58:47;4.90;;;1.65;;
25535;SDS011;13431;51.352;6.412;2022-08-21T16:01:14;4.07;;;1.70;;
25535;SDS011;13431;51.352;6.412;2022-08-21T16:03:42;4.85;;;1.67;;
25535;SDS011;13431;51.352;6.412;2022-08-21T16:06:14;4.93;;;1.60;;
25535;SDS011;13431;51.352;6.412;2022-08-21T16:08:41;2.90;;;1.65;;
25535;SDS011;13431;51.352;6.412;2022-08-21T16:11:10;4.28;;;1.52;;